Time;durP1;ratioP1;P1;durP2;ratioP2;P2;SDS_P1;SDS_P2;PMS_P1;PMS_P2;Temp;Humidity;BMP_temperature;BMP_pressure;BME280_temperature;BME280_humidity;BME280_pressure;Samples;Min_cycle;Max_cycle;Signal;HPM_P1;HPM_P2
2022/07/18 00:01:40;;;;;;;115.55;91.72;;;;;;;29.32;35.56;101155.06;5065047;28;20060;-74
2022/07/18 00:04:06;;;;;;;100.55;81.25;;;;;;;29.32;35.68;101158.56;5064731;28;20040;-74
2022/07/18 00:06:31;;;;;;;100.88;79.72;;;;;;;29.32;35.71;101160.44;5065334;28;20131;-74
2022/07/18 00:08:57;;;;;;;95.60;76.72;;;;;;;29.32;35.75;101155.88;5065894;28;20168;-74
2022/07/18 00:11:22;;;;;;;92.60;74.60;;;;;;;29.32;36.16;101150.53;5064786;28;20124;-74
2022/07/18 00:13:50;;;;;;;91.22;69.40;;;;;;;29.33;35.63;101156.69;5065499;28;20517;-75
2022/07/18 00:16:15;;;;;;;78.28;61.15;;;;;;;29.33;35.56;101154.81;5069790;28;20029;-74
2022/07/18 00:18:41;;;;;;;72.75;56.47;;;;;;;29.33;35.77;101151.34;5069578;28;20082;-75
2022/07/18 00:21:06;;;;;;;71.35;57.78;;;;;;;29.32;36.12;101142.47;5068492;28;20029;-74
2022/07/18 00:23:32;;;;;;;72.75;56.55;;;;;;;29.33;35.95;101157.50;5069765;28;20032;-75
2022/07/18 00:25:57;;;;;;;93.43;70.70;;;;;;;29.34;35.81;101148.41;5069662;28;20055;-74
2022/07/18 00:28:22;;;;;;;95.10;72.80;;;;;;;29.34;35.94;101152.94;5069057;28;20557;-75
2022/07/18 00:30:48;;;;;;;90.55;69.60;;;;;;;29.34;35.83;101151.06;5070692;28;20029;-74
2022/07/18 00:33:13;;;;;;;75.15;56.63;;;;;;;29.34;35.96;101147.59;5069432;28;20031;-75
2022/07/18 00:35:39;;;;;;;64.30;49.45;;;;;;;29.33;35.96;101141.41;5066979;28;20028;-75
2022/07/18 00:38:04;;;;;;;46.35;35.22;;;;;;;29.33;35.72;101140.59;5069367;28;20120;-74
2022/07/18 00:40:31;;;;;;;37.28;29.48;;;;;;;29.32;35.72;101147.84;5069474;28;20408;-74
2022/07/18 00:42:57;;;;;;;31.52;24.20;;;;;;;29.32;35.62;101144.34;5068630;28;20028;-74
2022/07/18 00:45:22;;;;;;;25.17;20.45;;;;;;;29.31;35.86;101143.53;5067794;28;20024;-74
2022/07/18 00:47:51;;;;;;;20.13;15.85;;;;;;;29.31;35.66;101148.09;5069504;28;20032;-74
2022/07/18 00:50:18;;;;;;;17.13;11.93;;;;;;;29.31;35.50;101153.47;5069213;28;20035;-74
2022/07/18 00:52:43;;;;;;;14.63;10.90;;;;;;;29.31;35.77;101143.53;5050888;28;20476;-74
2022/07/18 00:55:09;;;;;;;12.25;9.93;;;;;;;29.31;35.65;101148.09;5070144;28;20029;-75
2022/07/18 00:57:35;;;;;;;10.73;8.52;;;;;;;29.29;35.80;101143.00;5068593;28;20048;-75
2022/07/18 01:02:45;;;;;;;8.88;6.82;;;;;;;29.27;35.34;101147.81;5069083;28;20085;-74
2022/07/18 01:05:10;;;;;;;8.23;6.05;;;;;;;29.28;35.54;101149.44;5066601;28;20033;-74
2022/07/18 01:07:36;;;;;;;7.28;6.32;;;;;;;29.28;35.48;101154.00;5068462;28;20237;-74
2022/07/18 01:10:04;;;;;;;7.35;5.50;;;;;;;29.29;35.26;101155.59;5068457;28;20342;-74
2022/07/18 01:12:30;;;;;;;6.72;5.43;;;;;;;29.29;35.30;101152.94;5069075;28;20333;-75
2022/07/18 01:14:57;;;;;;;4.72;4.22;;;;;;;29.28;35.43;101154.81;5068647;28;20043;-75
2022/07/18 01:17:23;;;;;;;4.22;3.17;;;;;;;29.28;35.45;101157.47;5066093;28;20532;-75
2022/07/18 01:19:48;;;;;;;4.97;4.20;;;;;;;29.27;35.34;101158.53;5067419;28;20078;-75
2022/07/18 01:22:16;;;;;;;4.97;3.40;;;;;;;29.29;35.39;101161.78;5067401;28;20098;-75
2022/07/18 01:24:42;;;;;;;4.57;3.35;;;;;;;29.29;35.87;101163.66;5049916;28;20392;-75
2022/07/18 01:27:08;;;;;;;4.60;3.30;;;;;;;29.29;35.98;101156.41;5057055;28;20036;-74
2022/07/18 01:29:33;;;;;;;3.80;2.58;;;;;;;29.28;35.65;101164.72;5068242;28;20039;-74
2022/07/18 01:32:06;;;;;;;2.00;1.77;;;;;;;29.28;35.41;101157.47;5067212;28;20473;-74
2022/07/18 01:34:32;;;;;;;2.38;1.75;;;;;;;29.28;35.19;101164.72;5068391;28;20024;-74
2022/07/18 01:36:59;;;;;;;2.33;1.33;;;;;;;29.28;35.78;101159.34;5068451;28;20020;-74
2022/07/18 01:39:24;;;;;;;2.65;1.77;;;;;;;29.27;35.63;101158.53;5065403;28;20032;-75
2022/07/18 01:41:57;;;;;;;1.83;1.13;;;;;;;29.27;35.42;101163.91;5067719;28;20210;-74
2022/07/18 01:44:23;;;;;;;2.40;1.00;;;;;;;29.27;35.21;101155.06;5067750;28;20115;-74
2022/07/18 01:46:48;;;;;;;2.75;0.95;;;;;;;29.27;35.68;101153.19;5067957;28;20362;-73
2022/07/18 01:49:14;;;;;;;1.40;0.80;;;;;;;29.27;35.35;101158.53;5066953;28;20040;-74
2022/07/18 01:51:39;;;;;;;1.40;0.60;;;;;;;29.26;35.64;101153.44;5067577;28;20029;-74
2022/07/18 01:54:04;;;;;;;1.83;0.75;;;;;;;29.26;35.20;101156.94;5067350;28;20037;-74
2022/07/18 01:56:30;;;;;;;1.35;0.60;;;;;;;29.26;35.07;101158.78;5063775;28;20040;-73
2022/07/18 01:58:56;;;;;;;1.02;0.50;;;;;;;29.25;35.19;101155.31;5066890;28;20056;-74
2022/07/18 02:01:22;;;;;;;1.30;0.50;;;;;;;29.25;35.71;101155.31;5067850;28;20021;-74
2022/07/18 02:03:47;;;;;;;0.82;0.50;;;;;;;29.25;35.29;101165.22;5065921;28;20036;-74
2022/07/18 02:06:12;;;;;;;1.17;0.45;;;;;;;29.24;35.82;101164.41;5067143;28;20098;-74
2022/07/18 02:08:38;;;;;;;0.80;0.40;;;;;;;29.24;35.49;101163.59;5066861;28;20028;-74
2022/07/18 02:11:03;;;;;;;1.08;0.47;;;;;;;29.24;35.45;101168.97;5067850;28;20133;-74
2022/07/18 02:13:29;;;;;;;1.02;0.40;;;;;;;29.24;35.68;101164.41;5067572;28;20087;-74
2022/07/18 02:15:55;;;;;;;1.17;0.43;;;;;;;29.23;35.28;101168.16;5065801;28;20104;-74
2022/07/18 02:18:21;;;;;;;1.02;0.40;;;;;;;29.24;35.54;101172.47;5067625;28;20048;-74
2022/07/18 02:20:46;;;;;;;0.70;0.32;;;;;;;29.24;35.29;101168.97;5068753;28;20422;-74
2022/07/18 02:23:12;;;;;;;0.93;0.35;;;;;;;29.24;35.16;101167.09;5066844;28;20028;-74
2022/07/18 02:25:37;;;;;;;1.17;0.30;;;;;;;29.23;35.55;101168.16;5066510;28;20365;-75
2022/07/18 02:28:04;;;;;;;0.60;0.30;;;;;;;29.22;35.08;101161.16;5066659;28;20036;-74
2022/07/18 02:30:29;;;;;;;0.55;0.30;;;;;;;29.22;34.95;101163.03;5068223;28;20024;-75
2022/07/18 02:32:55;;;;;;;0.85;0.30;;;;;;;29.21;35.34;101159.53;5067504;28;20042;-74
2022/07/18 02:35:20;;;;;;;1.67;0.38;;;;;;;29.20;35.21;101157.94;5066280;28;20121;-74
2022/07/18 02:37:45;;;;;;;2.72;0.63;;;;;;;29.21;35.53;101158.72;5065002;28;20042;-74
2022/07/18 02:40:11;;;;;;;1.38;0.45;;;;;;;29.21;35.03;101156.06;5065356;28;20036;-73
2022/07/18 02:42:37;;;;;;;1.23;0.30;;;;;;;29.20;35.22;101155.25;5067438;28;20039;-75
2022/07/18 02:45:04;;;;;;;0.65;0.20;;;;;;;29.20;35.62;101157.94;5065929;28;20392;-74
2022/07/18 02:47:30;;;;;;;0.70;0.30;;;;;;;29.21;35.54;101153.38;5065033;28;20043;-74
2022/07/18 02:49:55;;;;;;;1.08;0.30;;;;;;;29.20;35.37;101152.56;5067910;28;20028;-74
2022/07/18 02:52:21;;;;;;;0.52;0.35;;;;;;;29.19;35.25;101156.31;5066049;28;20028;-74
2022/07/18 02:54:46;;;;;;;0.65;0.30;;;;;;;29.20;35.40;101152.56;5064985;28;20025;-75
2022/07/18 02:57:12;;;;;;;0.73;0.30;;;;;;;29.20;35.18;101152.56;5064958;28;20032;-75
2022/07/18 02:59:37;;;;;;;0.60;0.22;;;;;;;29.19;35.72;101144.75;5045734;28;20381;-75
2022/07/18 03:02:03;;;;;;;0.63;0.30;;;;;;;29.19;35.65;101145.56;5046854;28;20107;-76
2022/07/18 03:04:28;;;;;;;0.60;0.30;;;;;;;29.19;35.67;101155.50;5045928;28;20360;-75
2022/07/18 03:06:54;;;;;;;1.05;0.40;;;;;;;29.20;35.28;101160.59;5046135;28;20043;-75
2022/07/18 03:09:19;;;;;;;0.82;0.20;;;;;;;29.20;35.71;101151.75;5046561;28;20029;-75
2022/07/18 03:11:45;;;;;;;0.65;0.20;;;;;;;29.20;35.18;101155.25;5045875;28;20079;-75
2022/07/18 03:14:11;;;;;;;0.70;0.30;;;;;;;29.20;35.27;101157.94;5046593;28;20029;-74
2022/07/18 03:16:36;;;;;;;0.77;0.20;;;;;;;29.19;35.68;101158.97;5044939;28;20051;-74
2022/07/18 03:19:02;;;;;;;0.70;0.40;;;;;;;29.18;35.74;101160.03;5045555;28;20086;-75
2022/07/18 03:21:28;;;;;;;1.05;0.32;;;;;;;29.18;35.62;101160.03;5046237;28;20481;-74
2022/07/18 03:23:54;;;;;;;0.95;0.43;;;;;;;29.18;35.46;101159.22;5046154;28;20101;-75
2022/07/18 03:26:19;;;;;;;2.10;0.30;;;;;;;29.17;35.30;101155.75;5045170;28;20461;-73
2022/07/18 03:28:45;;;;;;;1.15;0.40;;;;;;;29.17;36.16;101157.63;5045670;28;20040;-74
2022/07/18 03:31:11;;;;;;;3.08;0.38;;;;;;;29.23;36.39;101157.44;5044796;28;20065;-75
2022/07/18 03:33:38;;;;;;;4.25;1.17;;;;;;;29.29;38.29;101155.59;5047684;28;20481;-75
2022/07/18 03:36:04;;;;;;;2.95;0.47;;;;;;;29.26;37.26;101164.97;5046428;28;20025;-73
2022/07/18 03:38:29;;;;;;;6.03;0.40;;;;;;;29.23;36.60;101161.97;5029063;28;20460;-75
2022/07/18 03:40:55;;;;;;;6.57;0.40;;;;;;;29.18;36.75;101160.03;5046951;28;20028;-76
2022/07/18 03:43:20;;;;;;;3.00;0.30;;;;;;;29.16;37.27;101162.16;5046253;28;20047;-74
2022/07/18 03:45:47;;;;;;;1.83;0.40;;;;;;;29.17;37.00;101161.09;5232228;22;20024;-76
2022/07/18 03:48:13;;;;;;;3.08;0.30;;;;;;;29.18;36.57;101165.41;5008020;28;20050;-75
2022/07/18 03:50:38;;;;;;;3.90;0.30;;;;;;;29.17;36.89;101163.78;5011734;28;20527;-73
2022/07/18 03:53:03;;;;;;;1.95;0.40;;;;;;;29.18;36.88;101170.78;5011999;28;20026;-75
2022/07/18 03:55:29;;;;;;;2.53;0.30;;;;;;;29.18;36.72;101170.78;5012367;28;20036;-73
2022/07/18 03:57:54;;;;;;;1.35;0.30;;;;;;;29.18;36.25;101165.41;5006067;28;20038;-74
2022/07/18 04:00:20;;;;;;;1.00;0.40;;;;;;;29.17;36.30;101169.16;4991703;28;20053;-73
2022/07/18 04:02:47;;;;;;;1.80;0.40;;;;;;;29.17;35.92;101169.16;4992461;28;20093;-73
2022/07/18 04:05:14;;;;;;;3.60;0.40;;;;;;;29.19;36.01;101166.22;4992391;28;20026;-75
2022/07/18 04:07:40;;;;;;;2.90;0.30;;;;;;;29.18;36.15;101170.78;4992346;28;20112;-74
2022/07/18 04:10:07;;;;;;;0.75;0.45;;;;;;;29.20;36.15;101168.66;4992349;28;20026;-72
2022/07/18 04:12:33;;;;;;;0.98;0.50;;;;;;;29.20;36.41;101174.03;4992623;28;20553;-73
2022/07/18 04:14:58;;;;;;;1.08;0.30;;;;;;;29.20;35.81;101173.22;4992609;28;20022;-72
2022/07/18 04:17:24;;;;;;;1.00;0.30;;;;;;;29.20;36.03;101174.03;4992243;28;20030;-75
2022/07/18 04:19:51;;;;;;;1.20;0.32;;;;;;;29.20;35.85;101167.84;4992029;28;20027;-74
2022/07/18 04:22:17;;;;;;;1.27;0.32;;;;;;;29.21;35.68;101170.28;4992070;28;20033;-73
2022/07/18 04:24:42;;;;;;;0.75;0.30;;;;;;;29.20;35.48;101173.22;4992294;28;20022;-72
2022/07/18 04:27:08;;;;;;;1.40;0.30;;;;;;;29.18;35.28;101173.47;4992155;28;20045;-73
2022/07/18 04:29:35;;;;;;;3.70;0.30;;;;;;;29.16;34.95;101172.91;4992180;28;20100;-73
2022/07/18 04:32:02;;;;;;;1.20;0.40;;;;;;;29.15;35.09;101176.66;4991921;28;20033;-74
2022/07/18 04:34:27;;;;;;;1.98;0.30;;;;;;;29.13;35.44;101181.44;4991763;28;20440;-74
2022/07/18 04:36:53;;;;;;;0.73;0.28;;;;;;;29.11;35.33;101180.88;4991782;28;20034;-73
2022/07/18 04:39:18;;;;;;;2.15;0.35;;;;;;;29.10;35.14;101187.31;4990442;28;20486;-73
2022/07/18 04:41:43;;;;;;;1.13;0.30;;;;;;;29.09;35.22;101183.00;4987543;28;20121;-74
2022/07/18 04:44:09;;;;;;;2.65;0.50;;;;;;;29.09;35.29;101188.38;4991943;28;20026;-73
2022/07/18 04:46:35;;;;;;;1.20;0.30;;;;;;;29.06;35.47;101191.56;4991673;28;20521;-74
2022/07/18 04:49:00;;;;;;;3.22;0.30;;;;;;;29.03;35.24;101190.19;4991895;28;20390;-73
2022/07/18 04:51:26;;;;;;;1.98;0.35;;;;;;;29.03;35.57;101189.38;4991525;28;20034;-74
2022/07/18 04:53:52;;;;;;;3.08;0.43;;;;;;;29.01;35.58;101192.28;4992007;28;20132;-73
2022/07/18 04:56:17;;;;;;;2.63;0.47;;;;;;;29.01;35.59;101183.44;4991819;28;20043;-73
2022/07/18 04:58:43;;;;;;;2.33;0.38;;;;;;;29.02;36.12;101188.56;4991504;28;20398;-74
2022/07/18 05:01:08;;;;;;;8.55;0.93;;;;;;;29.04;36.15;101189.13;4991237;28;20046;-74
2022/07/18 05:03:34;;;;;;;2.17;0.43;;;;;;;29.04;36.27;101189.13;4991561;28;20084;-73
2022/07/18 05:05:59;;;;;;;5.50;0.35;;;;;;;29.01;35.72;101184.25;4991220;28;20031;-74
2022/07/18 05:08:24;;;;;;;2.05;0.45;;;;;;;29.00;36.21;101200.59;4991500;28;20037;-72
2022/07/18 05:10:50;;;;;;;1.25;0.30;;;;;;;28.95;36.03;101195.16;4991346;28;20113;-74
2022/07/18 05:13:16;;;;;;;1.63;0.50;;;;;;;28.90;36.32;101197.78;4991283;28;20018;-73
2022/07/18 05:15:41;;;;;;;1.35;0.50;;;;;;;28.87;36.38;101198.28;4991565;28;20041;-74
2022/07/18 05:18:07;;;;;;;0.75;0.30;;;;;;;28.89;36.33;101193.47;4991118;28;20018;-72
2022/07/18 05:20:33;;;;;;;3.13;0.63;;;;;;;28.92;36.67;101195.66;4991054;28;20026;-74
2022/07/18 05:22:58;;;;;;;1.90;0.40;;;;;;;28.95;36.70;101195.16;4991250;28;20073;-73
2022/07/18 05:25:24;;;;;;;1.02;0.30;;;;;;;28.96;36.78;101192.22;4991288;28;20119;-73
2022/07/18 05:27:50;;;;;;;2.28;0.30;;;;;;;28.98;36.37;101186.63;4991038;28;20034;-73
2022/07/18 05:30:15;;;;;;;4.68;0.40;;;;;;;28.99;36.59;101188.25;4991445;28;20121;-73
2022/07/18 05:32:42;;;;;;;2.53;0.50;;;;;;;29.00;36.29;101192.53;4990893;28;20558;-73
2022/07/18 05:35:09;;;;;;;1.70;0.40;;;;;;;28.99;36.25;101189.06;4990880;28;20378;-74
2022/07/18 05:37:36;;;;;;;3.90;0.40;;;;;;;28.99;36.54;101183.69;4990759;28;20715;-74
2022/07/18 05:40:06;;;;;;;1.52;0.40;;;;;;;28.99;36.01;101188.25;4990819;28;20101;-73
2022/07/18 05:42:32;;;;;;;4.35;0.50;;;;;;;28.97;36.05;101195.72;4990727;28;20073;-74
2022/07/18 05:44:58;;;;;;;1.33;0.40;;;;;;;28.91;36.23;101194.03;4990339;28;20034;-73
2022/07/18 05:47:23;;;;;;;1.48;0.30;;;;;;;28.87;35.55;101203.63;4989897;28;20046;-73
2022/07/18 05:49:48;;;;;;;1.98;0.40;;;;;;;28.87;35.96;101212.50;4987710;28;20026;-74
2022/07/18 05:52:14;;;;;;;1.30;0.30;;;;;;;28.89;35.75;101198.84;4990180;28;20053;-73
2022/07/18 05:54:39;;;;;;;1.58;0.40;;;;;;;28.90;35.24;101213.88;4989951;28;20030;-73
2022/07/18 05:57:05;;;;;;;1.42;0.38;;;;;;;28.90;35.03;101211.19;4990208;28;20053;-73
2022/07/18 05:59:30;;;;;;;2.65;0.40;;;;;;;28.88;35.10;101213.31;4990432;28;20076;-73
2022/07/18 06:01:56;;;;;;;2.90;0.30;;;;;;;28.81;34.68;101221.53;4986747;28;20026;-73
2022/07/18 06:04:21;;;;;;;0.70;0.30;;;;;;;28.77;34.10;101216.91;4985159;28;20031;-72
2022/07/18 06:06:49;;;;;;;1.88;0.30;;;;;;;28.71;34.32;101213.31;4987444;28;20050;-73
2022/07/18 06:09:17;;;;;;;0.75;0.30;;;;;;;28.70;33.90;101209.84;4989037;28;20474;-75
2022/07/18 06:11:42;;;;;;;0.98;0.30;;;;;;;28.71;34.41;101214.13;4987004;28;20033;-75
2022/07/18 06:14:08;;;;;;;0.35;0.20;;;;;;;28.72;34.17;101214.94;4973721;28;20039;-74
2022/07/18 06:16:33;;;;;;;2.25;0.32;;;;;;;28.71;34.14;101224.06;4988463;28;20092;-73
2022/07/18 06:18:59;;;;;;;1.10;0.30;;;;;;;28.66;33.92;101216.75;4989712;28;20117;-72
2022/07/18 06:21:25;;;;;;;1.73;0.43;;;;;;;28.65;33.66;101220.47;4989954;28;20022;-73
2022/07/18 06:23:50;;;;;;;0.90;0.30;;;;;;;28.62;33.87;101223.66;4989559;28;20026;-76
2022/07/18 06:26:16;;;;;;;2.05;0.30;;;;;;;28.58;33.80;101209.13;4990213;28;20034;-75
2022/07/18 06:28:41;;;;;;;1.20;0.40;;;;;;;28.57;33.86;101218.22;4989846;28;20433;-75
2022/07/18 06:31:06;;;;;;;3.15;0.40;;;;;;;28.58;33.95;101214.47;4989592;28;20426;-73
2022/07/18 06:33:32;;;;;;;0.98;0.40;;;;;;;28.61;33.67;101207.81;4989780;28;20034;-72
2022/07/18 06:35:57;;;;;;;1.20;0.25;;;;;;;28.65;33.72;101207.06;4989793;28;20031;-74
2022/07/18 06:38:23;;;;;;;1.48;0.40;;;;;;;28.66;33.54;101206.03;4989683;28;20042;-73
2022/07/18 06:40:48;;;;;;;1.45;0.40;;;;;;;28.65;33.83;101215.13;4989618;28;20359;-73
2022/07/18 06:43:19;;;;;;;3.17;0.35;;;;;;;28.60;33.72;101212.38;4990099;28;20033;-75
2022/07/18 06:45:48;;;;;;;1.45;0.30;;;;;;;28.60;33.48;101209.69;4989429;28;20026;-73
2022/07/18 06:48:14;;;;;;;0.88;0.20;;;;;;;28.61;33.89;101200.59;4989702;28;20141;-73
2022/07/18 06:50:40;;;;;;;5.32;0.68;;;;;;;28.63;33.98;101209.19;4989544;28;20137;-75
2022/07/18 06:53:05;;;;;;;0.70;0.35;;;;;;;28.63;33.87;101209.19;4989598;28;20049;-76
2022/07/18 06:55:31;;;;;;;1.58;0.30;;;;;;;28.58;33.83;101206.44;4989248;28;20026;-76
2022/07/18 06:57:56;;;;;;;0.80;0.47;;;;;;;28.58;33.89;101211.78;4989531;28;20062;-72
2022/07/18 07:00:21;;;;;;;3.17;0.40;;;;;;;28.62;34.25;101206.75;4989213;28;20394;-72
2022/07/18 07:02:48;;;;;;;3.03;0.30;;;;;;;28.60;33.88;101211.56;4989315;28;20395;-74
2022/07/18 07:05:16;;;;;;;1.27;0.30;;;;;;;28.54;33.55;101207.16;4989352;28;20030;-72
2022/07/18 07:07:42;;;;;;;0.90;0.30;;;;;;;28.53;33.80;101205.53;4989179;28;20060;-72
2022/07/18 07:10:08;;;;;;;2.70;0.40;;;;;;;28.54;33.61;101204.50;4989086;28;20069;-74
2022/07/18 07:12:40;;;;;;;1.67;0.30;;;;;;;28.55;33.75;101204.25;4989005;28;20110;-73
2022/07/18 07:15:08;;;;;;;1.35;0.30;;;;;;;28.56;33.74;101205.88;4971180;28;20435;-74
2022/07/18 07:17:33;;;;;;;0.68;0.30;;;;;;;28.53;33.69;101208.22;4988796;28;20537;-74
2022/07/18 07:19:58;;;;;;;1.20;0.22;;;;;;;28.54;34.15;101209.84;4988944;28;20030;-75
2022/07/18 07:22:24;;;;;;;3.08;0.43;;;;;;;28.54;33.82;101213.34;4989096;28;20471;-73
2022/07/18 07:24:49;;;;;;;1.00;0.40;;;;;;;28.56;33.74;101205.06;4989114;28;20022;-73
2022/07/18 07:27:15;;;;;;;0.70;0.30;;;;;;;28.56;34.00;101208.53;4988961;28;20461;-74
2022/07/18 07:29:40;;;;;;;0.63;0.30;;;;;;;28.57;34.13;101212.03;4988715;28;20035;-73
2022/07/18 07:32:06;;;;;;;0.90;0.30;;;;;;;28.57;33.91;101201.31;4988841;28;20037;-76
2022/07/18 07:34:31;;;;;;;2.90;0.30;;;;;;;28.58;34.13;101213.66;4989126;28;20113;-75
2022/07/18 07:36:57;;;;;;;2.75;0.30;;;;;;;28.56;34.17;101200.50;4988760;28;20026;-73
2022/07/18 07:39:22;;;;;;;3.03;0.40;;;;;;;28.57;33.90;101207.50;4988669;28;20030;-75
2022/07/18 07:41:48;;;;;;;0.77;0.20;;;;;;;28.48;33.74;101203.59;4988863;28;20031;-73
2022/07/18 07:44:13;;;;;;;1.80;0.38;;;;;;;28.46;33.96;101203.03;4988696;28;20438;-73
2022/07/18 07:46:38;;;;;;;0.93;0.30;;;;;;;28.47;33.86;101201.97;4988499;28;20070;-73
2022/07/18 07:49:04;;;;;;;0.90;0.60;;;;;;;28.49;33.81;101202.53;4988946;28;20070;-74
2022/07/18 07:51:29;;;;;;;1.58;0.40;;;;;;;28.52;33.73;101194.00;4988830;28;20374;-75
2022/07/18 07:53:55;;;;;;;1.05;0.25;;;;;;;28.55;34.02;101198.88;4988769;28;20022;-73
2022/07/18 07:56:20;;;;;;;0.52;0.30;;;;;;;28.58;33.99;101192.22;4985946;28;20125;-72
2022/07/18 07:58:46;;;;;;;0.70;0.30;;;;;;;28.59;33.81;101191.97;4987124;28;20027;-72
2022/07/18 08:01:11;;;;;;;3.20;0.40;;;;;;;28.61;34.27;101189.03;4988411;28;20039;-71
2022/07/18 08:03:37;;;;;;;0.68;0.30;;;;;;;28.61;33.83;101192.53;4989004;28;20229;-73
2022/07/18 08:06:03;;;;;;;6.82;0.40;;;;;;;28.61;33.83;101192.53;4970964;28;20469;-72
2022/07/18 08:08:28;;;;;;;1.48;0.30;;;;;;;28.62;33.87;101188.00;4988824;28;20030;-72
2022/07/18 08:10:54;;;;;;;2.28;0.30;;;;;;;28.61;33.68;101178.31;4988444;28;20038;-72
2022/07/18 08:13:19;;;;;;;2.28;0.30;;;;;;;28.61;34.06;101176.47;4988253;28;20048;-72
2022/07/18 08:15:45;;;;;;;1.02;0.22;;;;;;;28.62;33.84;101177.28;4988403;28;20506;-72
2022/07/18 08:18:10;;;;;;;1.35;0.40;;;;;;;28.60;33.94;101174.84;4988109;28;20033;-72
2022/07/18 08:20:36;;;;;;;1.90;0.40;;;;;;;28.62;33.66;101177.28;4988385;28;20026;-72
2022/07/18 08:23:07;;;;;;;1.17;0.45;;;;;;;28.55;33.34;101172.06;4988240;28;20471;-72
2022/07/18 08:25:35;;;;;;;1.67;0.30;;;;;;;28.55;33.68;101176.63;4988314;28;20033;-72
2022/07/18 08:28:01;;;;;;;0.52;0.25;;;;;;;28.54;33.17;101175.00;4987974;28;20062;-72
2022/07/18 08:30:28;;;;;;;1.05;0.38;;;;;;;28.58;33.61;101176.13;4990786;28;20077;-72
2022/07/18 08:32:53;;;;;;;1.92;0.38;;;;;;;28.60;33.60;101171.34;4988207;28;20023;-72
2022/07/18 08:35:19;;;;;;;0.98;0.40;;;;;;;28.62;33.31;101174.59;4989109;28;20033;-72
2022/07/18 08:37:45;;;;;;;1.13;0.38;;;;;;;28.62;33.37;101171.91;4993213;28;20037;-72
2022/07/18 08:40:11;;;;;;;1.67;0.40;;;;;;;28.61;33.00;101170.28;4993363;28;20382;-71
2022/07/18 08:42:37;;;;;;;1.05;0.30;;;;;;;28.62;33.37;101172.72;4992487;28;20117;-72
2022/07/18 08:45:04;;;;;;;1.90;0.30;;;;;;;28.63;33.05;101179.69;4992271;28;20026;-71
2022/07/18 08:47:30;;;;;;;1.13;0.30;;;;;;;28.61;33.02;101173.78;4992278;28;20070;-72
2022/07/18 08:49:55;;;;;;;1.73;0.32;;;;;;;28.62;33.60;101170.03;4992685;28;20483;-72
2022/07/18 08:52:22;;;;;;;2.80;0.52;;;;;;;28.66;33.20;101173.03;4992918;28;20113;-71
2022/07/18 08:54:50;;;;;;;3.40;0.40;;;;;;;28.65;33.06;101166.88;4992445;28;20041;-72
2022/07/18 08:57:17;;;;;;;2.38;0.30;;;;;;;28.62;32.73;101161.19;4993836;28;20081;-72
2022/07/18 08:59:42;;;;;;;2.30;0.30;;;;;;;28.64;33.13;101161.75;4991469;28;20026;-73
2022/07/18 09:02:08;;;;;;;1.60;0.30;;;;;;;28.65;32.76;101172.22;4991299;28;20053;-73
2022/07/18 09:04:42;;;;;;;1.00;0.30;;;;;;;28.68;32.71;101165.56;4991163;28;20087;-73
2022/07/18 09:07:09;;;;;;;2.03;0.32;;;;;;;28.67;32.90;101164.75;4991045;28;20042;-73
2022/07/18 09:09:36;;;;;;;5.72;0.40;;;;;;;28.65;32.99;101169.53;4991565;28;20034;-71
2022/07/18 09:12:05;;;;;;;4.07;0.50;;;;;;;28.67;32.91;101164.75;4992572;28;20019;-72
2022/07/18 09:14:44;;;;;;;3.13;0.30;;;;;;;28.68;32.37;101163.69;4993397;28;20061;-70
2022/07/18 09:17:14;;;;;;;1.15;0.40;;;;;;;28.74;32.42;101160.03;4992512;28;20023;-71
2022/07/18 09:19:55;;;;;;;3.17;0.40;;;;;;;28.77;32.08;101157.91;4991946;28;20046;-71
2022/07/18 09:22:23;;;;;;;1.85;0.30;;;;;;;28.78;32.40;101148.81;4991981;28;20026;-70
2022/07/18 09:24:59;;;;;;;1.42;0.50;;;;;;;28.79;32.24;101161.97;4991571;28;20125;-71
2022/07/18 09:27:25;;;;;;;0.70;0.30;;;;;;;28.82;32.64;101139.22;4992197;28;20030;-71
2022/07/18 09:30:07;;;;;;;2.83;0.40;;;;;;;28.86;32.05;101161.78;4991918;28;20387;-74
2022/07/18 09:32:32;;;;;;;1.45;0.40;;;;;;;28.86;32.49;101165.28;4991573;28;20037;-72
2022/07/18 09:35:04;;;;;;;3.78;0.32;;;;;;;28.82;32.33;101156.13;4990817;28;20026;-71
2022/07/18 09:37:30;;;;;;;3.53;0.30;;;;;;;28.83;32.55;101156.94;4990567;28;20684;-71
2022/07/18 09:40:14;;;;;;;2.08;0.30;;;;;;;28.82;31.56;101160.69;4990392;28;20273;-72
2022/07/18 09:42:39;;;;;;;1.42;0.60;;;;;;;28.86;31.64;101154.53;4990489;28;20134;-72
2022/07/18 09:45:05;;;;;;;1.45;0.47;;;;;;;28.90;32.00;101158.34;4990235;28;20105;-71
2022/07/18 09:47:31;;;;;;;1.45;0.38;;;;;;;28.92;31.80;101153.56;4988992;28;20046;-72
2022/07/18 09:49:56;;;;;;;3.13;0.50;;;;;;;28.92;31.76;101150.06;4990402;28;20030;-72
2022/07/18 09:52:22;;;;;;;2.20;0.35;;;;;;;28.91;31.54;101153.81;4990368;28;20029;-72
2022/07/18 09:54:48;;;;;;;1.13;0.30;;;;;;;28.88;31.56;101163.16;4990222;28;20026;-71
2022/07/18 09:57:24;;;;;;;3.22;0.35;;;;;;;28.88;31.21;101154.31;4990309;28;20027;-72
2022/07/18 09:59:50;;;;;;;3.60;0.30;;;;;;;28.90;31.59;101157.53;4990185;28;20038;-71
2022/07/18 10:02:16;;;;;;;2.65;0.38;;;;;;;28.93;31.73;101154.38;4990649;28;20032;-72
2022/07/18 10:04:42;;;;;;;1.90;0.45;;;;;;;28.95;31.84;101155.75;4991556;28;20037;-71
2022/07/18 10:07:08;;;;;;;1.15;0.40;;;;;;;28.95;31.55;101153.06;4991203;28;20033;-72
2022/07/18 10:09:34;;;;;;;2.42;0.40;;;;;;;28.98;31.53;101154.44;4972457;28;20038;-72
2022/07/18 10:11:59;;;;;;;0.60;0.30;;;;;;;28.98;31.97;101146.38;4991413;28;20076;-71
2022/07/18 10:14:27;;;;;;;2.90;0.40;;;;;;;28.98;31.70;101139.16;4990664;28;20092;-71
2022/07/18 10:16:54;;;;;;;1.10;0.40;;;;;;;28.98;31.93;101139.16;4990968;28;20030;-72
2022/07/18 10:19:19;;;;;;;0.47;0.30;;;;;;;29.00;31.55;101130.84;4991721;28;20626;-72
2022/07/18 10:21:49;;;;;;;2.10;0.30;;;;;;;29.00;31.64;101137.03;4991182;28;20158;-72
2022/07/18 10:24:18;;;;;;;1.95;0.30;;;;;;;29.02;31.81;101139.47;4992245;28;20037;-72
2022/07/18 10:26:43;;;;;;;0.63;0.25;;;;;;;29.01;31.42;101124.44;4989467;28;20041;-72
2022/07/18 10:29:10;;;;;;;2.85;0.40;;;;;;;29.02;31.43;101129.53;4989869;28;20027;-71
2022/07/18 10:31:38;;;;;;;1.85;0.40;;;;;;;29.06;31.68;101116.44;4989515;28;20471;-72
2022/07/18 10:34:12;;;;;;;1.10;0.28;;;;;;;29.09;31.78;101120.50;4989666;28;20042;-72
2022/07/18 10:36:40;;;;;;;1.70;0.50;;;;;;;29.10;31.78;101125.59;4989620;28;20034;-72
2022/07/18 10:39:21;;;;;;;1.52;0.30;;;;;;;29.10;31.14;101120.25;4971901;28;20038;-72
2022/07/18 10:41:46;;;;;;;1.42;0.50;;;;;;;29.12;31.20;101117.31;4989543;28;20030;-72
2022/07/18 10:44:40;;;;;;;1.38;0.40;;;;;;;29.13;31.36;101118.94;4989263;28;20120;-72
2022/07/18 10:47:08;;;;;;;1.23;0.30;;;;;;;29.15;31.44;101111.44;4985238;28;20062;-74
2022/07/18 10:49:46;;;;;;;1.30;0.35;;;;;;;29.15;31.19;101120.31;4988321;28;20030;-73
2022/07/18 10:52:29;;;;;;;0.80;0.30;;;;;;;29.16;30.92;101111.19;4989289;28;20057;-73
2022/07/18 10:55:15;;;;;;;1.85;0.50;;;;;;;29.17;30.90;101120.88;4989264;28;20030;-73
2022/07/18 10:57:50;;;;;;;1.83;0.40;;;;;;;29.17;30.98;101114.69;4988973;28;20113;-73
2022/07/18 11:00:34;;;;;;;1.92;0.40;;;;;;;29.21;31.33;101113.94;4987487;28;20019;-73
2022/07/18 11:03:00;;;;;;;1.85;0.32;;;;;;;29.25;30.89;101107.00;4985098;28;20101;-73
2022/07/18 11:05:25;;;;;;;0.75;0.35;;;;;;;29.25;31.19;101109.69;4988712;28;20444;-72
2022/07/18 11:08:13;;;;;;;3.50;0.63;;;;;;;29.23;31.34;101105.63;4989136;28;20034;-72
2022/07/18 11:10:41;;;;;;;0.90;0.38;;;;;;;29.26;31.17;101103.25;4981944;28;20054;-72
2022/07/18 11:13:28;;;;;;;1.58;0.30;;;;;;;29.29;30.75;101100.06;4989167;28;20030;-72
2022/07/18 11:16:13;;;;;;;2.95;0.30;;;;;;;29.31;31.18;101095.22;4989185;28;20117;-72
2022/07/18 11:18:39;;;;;;;1.52;0.60;;;;;;;29.30;31.00;101092.81;4988325;28;20050;-72
2022/07/18 11:21:15;;;;;;;0.73;0.20;;;;;;;29.31;31.09;101092.53;4988713;28;20030;-72
2022/07/18 11:23:46;;;;;;;2.30;0.30;;;;;;;29.35;31.03;101090.97;4989034;28;20034;-71
2022/07/18 11:26:20;;;;;;;1.50;0.30;;;;;;;29.36;30.61;101089.09;4988716;28;20069;-71